createdAt,value
2022-12-19T00:02:01.231Z,87.90
2022-12-19T00:04:30.382Z,88.10
2022-12-19T00:06:59.815Z,88.07
2022-12-19T00:09:30.025Z,88.09
2022-12-19T00:12:04.558Z,88.20
2022-12-19T00:14:34.750Z,88.22
2022-12-19T00:17:04.903Z,88.26
2022-12-19T00:19:37.723Z,88.47
2022-12-19T00:22:11.291Z,88.58
2022-12-19T00:24:42.266Z,88.34
2022-12-19T00:27:11.502Z,88.40
2022-12-19T00:29:40.612Z,88.56
2022-12-19T00:32:10.106Z,88.41
2022-12-19T00:34:49.769Z,88.33
2022-12-19T00:37:19.063Z,88.18
2022-12-19T00:39:49.369Z,88.32
2022-12-19T00:42:22.278Z,88.46
2022-12-19T00:44:57.404Z,88.65
2022-12-19T00:47:30.214Z,88.67
2022-12-19T00:49:59.998Z,88.78
2022-12-19T00:52:29.757Z,88.71
2022-12-19T00:55:02.168Z,88.58
2022-12-19T00:57:35.504Z,88.69
2022-12-19T01:00:06.892Z,88.95
2022-12-19T01:02:38.541Z,89.49
2022-12-19T01:05:12.361Z,90.15
2022-12-19T01:07:45.964Z,90.21
2022-12-19T01:10:27.989Z,90.56
2022-12-19T01:12:57.738Z,90.52
2022-12-19T01:15:29.894Z,90.24
2022-12-19T01:18:02.414Z,90.11
2022-12-19T01:20:31.170Z,89.97
2022-12-19T01:23:00.824Z,89.80
2022-12-19T01:25:31.476Z,89.52
2022-12-19T01:28:02.090Z,89.52
2022-12-19T01:30:36.558Z,89.52
2022-12-19T01:33:15.856Z,89.53
2022-12-19T01:35:46.778Z,89.43
2022-12-19T01:38:26.786Z,89.41
2022-12-19T01:40:59.308Z,89.37
2022-12-19T01:43:34.853Z,89.36
2022-12-19T01:46:06.921Z,89.20
2022-12-19T01:48:46.932Z,89.13
2022-12-19T01:51:21.516Z,89.21
2022-12-19T01:53:54.186Z,89.34
2022-12-19T01:56:30.813Z,89.30
2022-12-19T01:59:11.580Z,89.31
2022-12-19T02:02:03.774Z,89.47
2022-12-19T02:04:35.159Z,89.52
2022-12-19T02:07:14.894Z,89.57
2022-12-19T02:09:47.182Z,89.59
2022-12-19T02:12:27.399Z,89.74
2022-12-19T02:15:02.963Z,90.01
2022-12-19T02:17:53.155Z,90.07
2022-12-19T02:21:11.038Z,90.37
2022-12-19T02:24:37.591Z,90.35
2022-12-19T02:27:58.035Z,90.45
2022-12-19T02:31:11.875Z,90.63
2022-12-19T02:33:58.111Z,90.90
2022-12-19T02:36:38.810Z,91.53
2022-12-19T02:39:17.056Z,91.91
2022-12-19T02:41:52.653Z,91.90
2022-12-19T02:44:31.521Z,91.94
2022-12-19T02:47:05.383Z,91.95
2022-12-19T02:49:42.645Z,91.72
2022-12-19T02:52:15.442Z,91.11
2022-12-19T02:54:45.299Z,90.58
2022-12-19T02:57:28.103Z,88.78
2022-12-19T03:00:07.643Z,87.30
2022-12-19T03:02:54.953Z,86.57
2022-12-19T03:05:40.723Z,86.01
2022-12-19T03:08:22.337Z,85.52
2022-12-19T03:10:59.443Z,85.07
2022-12-19T03:13:33.681Z,84.91
2022-12-19T03:16:06.466Z,84.76
2022-12-19T03:18:42.014Z,84.73
2022-12-19T03:21:19.928Z,84.69
2022-12-19T03:23:52.775Z,84.61
2022-12-19T03:26:26.378Z,84.45
2022-12-19T03:29:04.873Z,84.32
2022-12-19T03:31:42.732Z,84.20
2022-12-19T03:34:24.288Z,84.34
2022-12-19T03:37:02.809Z,84.81
2022-12-19T03:39:35.494Z,84.99
2022-12-19T03:42:25.059Z,85.10
2022-12-19T03:44:58.685Z,84.86
2022-12-19T03:47:36.154Z,84.72
2022-12-19T03:50:08.584Z,84.87
2022-12-19T03:52:48.318Z,84.84
2022-12-19T03:55:25.671Z,84.82
2022-12-19T03:58:01.631Z,84.79
2022-12-19T04:00:36.372Z,84.55
2022-12-19T04:03:08.051Z,84.49
2022-12-19T04:05:41.792Z,84.25
2022-12-19T04:08:13.962Z,84.32
2022-12-19T04:10:52.952Z,84.06
2022-12-19T04:13:32.515Z,84.07
2022-12-19T04:16:19.180Z,83.90
2022-12-19T04:19:01.125Z,84.05
2022-12-19T04:21:41.731Z,84.37
2022-12-19T04:24:17.081Z,84.46
2022-12-19T04:26:50.630Z,84.44
2022-12-19T04:29:20.740Z,83.99
2022-12-19T04:31:51.025Z,83.66
2022-12-19T04:34:22.725Z,83.56
2022-12-19T04:36:53.370Z,83.54
2022-12-19T04:39:24.217Z,83.45
2022-12-19T04:41:53.691Z,83.36
2022-12-19T04:44:23.351Z,83.26
2022-12-19T04:46:53.863Z,83.15
2022-12-19T04:49:22.798Z,83.20
2022-12-19T04:51:54.508Z,83.12
2022-12-19T04:54:24.105Z,83.17
2022-12-19T04:56:54.918Z,83.12
2022-12-19T04:59:24.628Z,83.03
2022-12-19T05:02:01.855Z,82.99
2022-12-19T05:04:32.777Z,83.08
2022-12-19T05:07:04.212Z,83.11
2022-12-19T05:09:34.719Z,83.11
2022-12-19T05:12:03.486Z,83.11
2022-12-19T05:14:33.516Z,83.18
2022-12-19T05:17:02.325Z,83.30
2022-12-19T05:19:31.530Z,83.40
2022-12-19T05:22:08.285Z,83.35
2022-12-19T05:24:38.958Z,83.40
2022-12-19T05:27:11.382Z,83.44
2022-12-19T05:29:42.414Z,83.34
2022-12-19T05:32:18.929Z,83.36
2022-12-19T05:34:47.640Z,83.44
2022-12-19T05:37:17.753Z,83.46
2022-12-19T05:39:46.447Z,83.35
2022-12-19T05:42:15.251Z,83.13
2022-12-19T05:44:43.969Z,82.95
2022-12-19T05:47:12.654Z,82.75
2022-12-19T05:49:41.352Z,82.52
2022-12-19T05:52:09.986Z,82.36
2022-12-19T05:54:40.115Z,82.32
2022-12-19T05:57:08.795Z,82.14
2022-12-19T05:59:37.480Z,81.87
2022-12-19T06:02:06.256Z,81.65
2022-12-19T06:04:35.738Z,81.56
2022-12-19T06:07:05.787Z,81.59
2022-12-19T06:09:34.530Z,81.44
2022-12-19T06:12:04.806Z,81.37
2022-12-19T06:14:33.608Z,81.17
2022-12-19T06:17:02.383Z,80.65
2022-12-19T06:19:31.536Z,80.58
2022-12-19T06:22:00.272Z,80.60
2022-12-19T06:24:34.814Z,80.74
2022-12-19T06:27:07.555Z,80.95
2022-12-19T06:29:36.373Z,81.21
2022-12-19T06:32:10.309Z,81.50
2022-12-19T06:37:32.268Z,82.05
2022-12-19T06:40:05.790Z,82.34
2022-12-19T06:42:35.433Z,82.44
2022-12-19T06:45:04.694Z,82.42
2022-12-19T06:47:33.913Z,82.56
2022-12-19T06:50:04.291Z,82.60
2022-12-19T06:52:33.080Z,82.41
2022-12-19T06:55:03.256Z,82.27
2022-12-19T06:57:32.488Z,82.17
2022-12-19T07:00:02.782Z,81.96
2022-12-19T07:02:33.970Z,81.85
2022-12-19T07:05:06.867Z,81.83
2022-12-19T07:07:35.790Z,81.97
2022-12-19T07:10:06.369Z,81.92
2022-12-19T07:12:35.674Z,81.91
2022-12-19T07:15:07.225Z,81.88
2022-12-19T07:17:40.432Z,82.02
2022-12-19T07:20:10.913Z,81.93
2022-12-19T07:22:40.661Z,81.97
2022-12-19T07:25:10.891Z,82.04
2022-12-19T07:27:41.892Z,82.10
2022-12-19T07:30:14.064Z,82.33
2022-12-19T07:32:42.833Z,82.73
2022-12-19T07:35:14.648Z,83.69
2022-12-19T07:37:43.484Z,84.91
2022-12-19T07:40:14.511Z,84.96
2022-12-19T07:42:43.427Z,84.94
2022-12-19T07:45:14.171Z,84.47
2022-12-19T07:47:42.892Z,84.19
2022-12-19T07:50:12.140Z,84.15
2022-12-19T07:52:40.976Z,83.88
2022-12-19T07:55:10.642Z,84.00
2022-12-19T07:57:39.464Z,84.23
2022-12-19T08:00:10.324Z,83.89
2022-12-19T08:02:43.430Z,83.62
2022-12-19T08:05:12.751Z,83.26
2022-12-19T08:07:42.156Z,82.88
2022-12-19T08:10:14.914Z,81.87
2022-12-19T08:12:43.900Z,80.90
2022-12-19T08:15:13.071Z,80.71
2022-12-19T08:17:44.672Z,81.37
2022-12-19T08:20:13.954Z,81.41
2022-12-19T08:22:42.691Z,81.60
2022-12-19T08:25:11.889Z,81.47
2022-12-19T08:27:43.068Z,81.38
2022-12-19T08:30:14.162Z,81.25
2022-12-19T08:32:45.272Z,81.18
2022-12-19T08:35:14.047Z,81.22
2022-12-19T08:37:42.817Z,81.09
2022-12-19T08:40:13.143Z,81.34
2022-12-19T08:42:42.514Z,81.33
2022-12-19T08:45:11.741Z,81.32
2022-12-19T08:47:40.516Z,81.53
2022-12-19T08:50:11.410Z,81.42
2022-12-19T08:52:40.175Z,81.51
2022-12-19T08:55:11.003Z,81.40
2022-12-19T08:57:39.758Z,81.49
2022-12-19T09:00:10.803Z,81.44
2022-12-19T09:02:40.666Z,81.30
2022-12-19T09:06:01.589Z,81.30
2022-12-19T09:08:01.113Z,81.32
2022-12-19T09:10:30.498Z,81.17
2022-12-19T09:12:59.380Z,81.18
2022-12-19T09:15:28.042Z,81.08
2022-12-19T09:17:56.801Z,81.19
2022-12-19T09:20:27.105Z,81.25
2022-12-19T09:22:56.067Z,81.48
2022-12-19T09:25:25.090Z,81.59
2022-12-19T09:28:26.318Z,81.79
2022-12-19T09:30:43.070Z,81.81
2022-12-19T09:33:12.720Z,81.95
2022-12-19T09:35:52.531Z,82.11
2022-12-19T09:38:25.479Z,82.10
2022-12-19T09:41:25.564Z,82.01
2022-12-19T09:44:10.830Z,82.05
2022-12-19T09:46:50.986Z,82.19
2022-12-19T09:49:24.502Z,82.11
2022-12-19T09:52:03.324Z,82.04
2022-12-19T09:54:40.003Z,82.09
2022-12-19T09:57:17.839Z,82.16
2022-12-19T09:59:52.492Z,82.09
2022-12-19T10:02:43.812Z,82.29
2022-12-19T10:05:55.650Z,82.19
2022-12-19T10:08:20.535Z,82.33
2022-12-19T10:12:43.157Z,82.40
2022-12-19T10:14:20.621Z,82.15
2022-12-19T10:17:23.620Z,82.27
2022-12-19T10:20:16.429Z,82.38
2022-12-19T10:23:03.561Z,82.21
2022-12-19T10:25:53.792Z,82.13
2022-12-19T10:28:45.372Z,82.15
2022-12-19T10:31:22.743Z,82.10
2022-12-19T10:34:01.560Z,82.08
2022-12-19T10:37:12.268Z,81.94
2022-12-19T10:39:32.953Z,81.83
2022-12-19T10:42:16.871Z,81.75
2022-12-19T10:44:48.620Z,81.81
2022-12-19T10:47:18.905Z,81.61
2022-12-19T10:49:49.388Z,81.45
2022-12-19T10:52:55.347Z,81.32
2022-12-19T10:55:35.618Z,81.04
2022-12-19T10:58:23.519Z,81.02
2022-12-19T11:01:15.897Z,80.87
2022-12-19T11:03:47.962Z,80.82
2022-12-19T11:06:53.286Z,80.78
2022-12-19T11:09:30.804Z,80.90
2022-12-19T11:16:34.862Z,80.61
2022-12-19T11:22:53.202Z,80.60
2022-12-19T11:29:25.862Z,80.72
2022-12-19T11:29:26.084Z,80.66
2022-12-19T11:29:34.916Z,80.23
2022-12-19T11:29:47.275Z,80.59
2022-12-19T11:32:43.578Z,80.54
2022-12-19T11:35:21.681Z,80.73
2022-12-19T11:37:58.853Z,80.96
2022-12-19T11:40:38.632Z,81.08
2022-12-19T11:46:22.277Z,81.17
2022-12-19T11:48:57.994Z,81.08
2022-12-19T11:51:36.190Z,81.32
2022-12-19T11:54:16.493Z,81.33
2022-12-19T11:56:46.168Z,81.27
2022-12-19T11:59:21.755Z,81.31
2022-12-19T12:02:33.386Z,81.32
2022-12-19T12:05:47.145Z,81.23
2022-12-19T12:12:17.359Z,81.14
2022-12-19T12:18:20.316Z,81.14
2022-12-19T12:26:19.560Z,81.17
2022-12-19T12:31:01.215Z,81.15
2022-12-19T12:31:08.169Z,81.22
2022-12-19T12:31:39.144Z,81.29
2022-12-19T12:31:47.319Z,81.35
2022-12-19T12:31:58.825Z,81.47
2022-12-19T12:36:54.505Z,81.64
2022-12-19T12:39:58.211Z,82.07
2022-12-19T12:42:44.803Z,82.35
2022-12-19T12:45:23.184Z,82.39
2022-12-19T12:47:54.589Z,82.67
2022-12-19T12:50:27.074Z,82.81
2022-12-19T12:53:00.051Z,82.70
2022-12-19T12:55:33.841Z,82.88
2022-12-19T12:58:02.877Z,83.02
2022-12-19T13:00:36.692Z,83.17
2022-12-19T13:03:17.245Z,83.35
2022-12-19T13:06:04.705Z,83.41
2022-12-19T13:08:39.392Z,83.39
2022-12-19T13:11:35.208Z,83.51
2022-12-19T13:14:05.522Z,83.99
2022-12-19T13:16:56.333Z,83.91
2022-12-19T13:19:35.219Z,84.08
2022-12-19T13:22:21.217Z,84.14
2022-12-19T13:24:52.553Z,83.93
2022-12-19T13:27:42.471Z,83.80
2022-12-19T13:30:21.553Z,83.99
2022-12-19T13:33:11.403Z,83.96
2022-12-19T13:39:47.863Z,83.85
2022-12-19T13:39:51.734Z,83.88
2022-12-19T13:42:02.953Z,83.87
2022-12-19T13:44:41.092Z,84.30
2022-12-19T13:47:17.661Z,84.61
2022-12-19T13:49:49.897Z,84.93
2022-12-19T13:52:20.157Z,85.08
2022-12-19T13:54:51.764Z,85.31
2022-12-19T13:57:33.253Z,85.27
2022-12-19T14:00:10.877Z,85.13
2022-12-19T14:02:49.767Z,85.27
2022-12-19T14:06:15.189Z,85.72
2022-12-19T14:08:26.258Z,86.07
2022-12-19T14:11:32.606Z,85.99
2022-12-19T14:14:15.189Z,85.83
2022-12-19T14:16:49.007Z,86.06
2022-12-19T14:19:23.542Z,86.17
2022-12-19T14:22:04.060Z,86.23
2022-12-19T14:24:43.051Z,86.42
2022-12-19T14:28:20.907Z,86.34
2022-12-19T14:30:29.271Z,86.06
2022-12-19T14:33:47.266Z,85.91
2022-12-19T14:36:07.636Z,85.91
2022-12-19T14:39:27.195Z,86.06
2022-12-19T14:42:19.914Z,86.04
2022-12-19T14:51:51.418Z,85.86
2022-12-19T14:54:02.606Z,86.12
2022-12-19T14:54:37.841Z,86.31
2022-12-19T14:57:50.666Z,86.66
2022-12-19T15:01:08.244Z,86.81
2022-12-19T15:03:24.611Z,86.64
2022-12-19T15:06:03.818Z,86.74
2022-12-19T15:09:17.852Z,86.73
2022-12-19T15:14:48.216Z,86.68
2022-12-19T15:15:22.656Z,86.85
2022-12-19T15:17:54.273Z,86.87
2022-12-19T15:20:24.309Z,86.84
2022-12-19T15:22:56.550Z,87.00
2022-12-19T15:26:02.225Z,87.30
2022-12-19T15:28:18.488Z,87.43
2022-12-19T15:30:57.691Z,87.24
2022-12-19T15:33:26.419Z,87.28
2022-12-19T15:35:56.443Z,87.31
2022-12-19T15:38:25.312Z,87.38
2022-12-19T15:40:53.966Z,87.32
2022-12-19T15:44:01.982Z,87.48
2022-12-19T15:46:15.605Z,87.50
2022-12-19T15:48:50.136Z,87.60
2022-12-19T15:51:18.888Z,87.68
2022-12-19T15:53:47.985Z,87.82
2022-12-19T15:56:28.784Z,87.70
2022-12-19T15:59:01.285Z,87.76
2022-12-19T16:01:34.457Z,87.80
2022-12-19T16:04:04.794Z,87.66
2022-12-19T16:06:33.643Z,87.72
2022-12-19T16:09:02.582Z,87.64
2022-12-19T16:11:31.357Z,87.56
2022-12-19T16:14:00.487Z,87.46
2022-12-19T16:16:31.468Z,87.49
2022-12-19T16:19:00.153Z,87.70
2022-12-19T16:21:34.014Z,87.71
2022-12-19T16:24:03.149Z,87.76
2022-12-19T16:26:36.342Z,87.64
2022-12-19T16:29:06.627Z,87.70
2022-12-19T16:31:36.786Z,87.75
2022-12-19T16:34:17.384Z,87.82
2022-12-19T16:36:46.221Z,87.81
2022-12-19T16:39:15.698Z,87.81
2022-12-19T16:41:47.220Z,87.70
2022-12-19T16:44:20.478Z,87.58
2022-12-19T16:46:52.462Z,87.57
2022-12-19T16:49:23.935Z,87.53
2022-12-19T16:51:53.426Z,87.53
2022-12-19T16:54:22.163Z,87.53
2022-12-19T16:56:53.911Z,87.53
2022-12-19T16:59:28.450Z,87.53
2022-12-19T17:02:00.329Z,87.42
2022-12-19T17:04:31.169Z,87.46
2022-12-19T17:07:00.808Z,87.56
2022-12-19T17:09:29.515Z,87.46
2022-12-19T17:12:02.149Z,87.53
2022-12-19T17:14:33.555Z,87.42
2022-12-19T17:17:03.968Z,87.32
2022-12-19T17:19:39.119Z,87.37
2022-12-19T17:22:13.254Z,87.39
2022-12-19T17:24:42.493Z,87.41
2022-12-19T17:27:11.233Z,87.38
2022-12-19T17:29:40.478Z,87.37
2022-12-19T17:32:23.286Z,87.34
2022-12-19T17:34:54.086Z,87.35
2022-12-19T17:37:23.193Z,87.23
2022-12-19T17:39:51.948Z,87.33
2022-12-19T17:42:25.075Z,87.37
2022-12-19T17:44:54.014Z,87.61
2022-12-19T17:47:24.988Z,87.47
2022-12-19T17:49:54.062Z,87.75
2022-12-19T17:52:22.816Z,87.66
2022-12-19T17:54:51.471Z,87.73
2022-12-19T17:57:20.615Z,87.89
2022-12-19T17:59:50.290Z,87.88
2022-12-19T18:02:23.912Z,87.86
2022-12-19T18:04:54.803Z,87.72
2022-12-19T18:07:23.505Z,87.80
2022-12-19T18:09:52.288Z,87.76
2022-12-19T18:12:21.176Z,87.75
2022-12-19T18:14:49.873Z,87.63
2022-12-19T18:17:26.421Z,87.71
2022-12-19T18:19:56.682Z,87.82
2022-12-19T18:22:25.330Z,87.95
2022-12-19T18:24:53.977Z,88.17
2022-12-19T18:27:22.596Z,88.04
2022-12-19T18:29:51.292Z,88.19
2022-12-19T18:32:22.075Z,88.20
2022-12-19T18:34:51.075Z,88.32
2022-12-19T18:37:22.638Z,87.99
2022-12-19T18:39:55.600Z,88.28
2022-12-19T18:42:24.435Z,88.27
2022-12-19T18:44:53.134Z,87.98
2022-12-19T18:47:25.523Z,87.92
2022-12-19T18:49:54.435Z,87.95
2022-12-19T18:52:24.583Z,88.15
2022-12-19T18:54:53.448Z,87.84
2022-12-19T18:57:22.117Z,88.25
2022-12-19T18:59:51.258Z,88.30
2022-12-19T19:02:28.015Z,88.40
2022-12-19T19:04:56.988Z,88.09
2022-12-19T19:07:27.279Z,88.27
2022-12-19T19:09:55.855Z,88.68
2022-12-19T19:12:48.625Z,88.39
2022-12-19T19:15:19.219Z,89.03
2022-12-19T19:17:51.943Z,88.47
2022-12-19T19:20:21.347Z,88.78
2022-12-19T19:22:52.331Z,88.52
2022-12-19T19:25:21.794Z,88.61
2022-12-19T19:27:50.969Z,88.47
2022-12-19T19:30:20.597Z,88.51
2022-12-19T19:32:55.026Z,88.49
2022-12-19T19:35:27.257Z,88.54
2022-12-19T19:38:02.713Z,88.32
2022-12-19T19:40:31.785Z,88.30
2022-12-19T19:43:01.648Z,88.32
2022-12-19T19:45:43.159Z,88.30
2022-12-19T19:48:13.694Z,88.31
2022-12-19T19:50:43.126Z,88.38
2022-12-19T19:53:13.267Z,88.30
2022-12-19T19:55:43.424Z,88.24
2022-12-19T19:58:12.311Z,88.35
2022-12-19T20:00:43.250Z,88.27
2022-12-19T20:03:16.786Z,88.39
2022-12-19T20:05:49.446Z,88.46
2022-12-19T20:08:19.646Z,88.43
2022-12-19T20:10:57.072Z,88.52
2022-12-19T20:13:26.283Z,88.61
2022-12-19T20:15:55.423Z,88.94
2022-12-19T20:18:24.347Z,89.23
2022-12-19T20:20:53.119Z,89.29
2022-12-19T20:23:23.309Z,89.48
2022-12-19T20:25:52.284Z,89.81
2022-12-19T20:28:21.075Z,89.78
2022-12-19T20:30:51.705Z,89.97
2022-12-19T20:33:20.431Z,90.01
2022-12-19T20:35:49.338Z,90.02
2022-12-19T20:38:18.523Z,90.13
2022-12-19T20:40:48.816Z,90.10
2022-12-19T20:43:17.503Z,90.04
2022-12-19T20:45:46.207Z,90.23
2022-12-19T20:48:23.681Z,90.09
2022-12-19T20:50:57.706Z,90.04
2022-12-19T20:53:27.206Z,90.03
2022-12-19T20:56:01.134Z,90.06
2022-12-19T20:58:32.056Z,89.99
2022-12-19T21:01:06.965Z,90.03
2022-12-19T21:03:37.294Z,89.91
2022-12-19T21:06:07.614Z,89.93
2022-12-19T21:08:37.744Z,89.83
2022-12-19T21:11:10.607Z,89.93
2022-12-19T21:13:41.163Z,89.75
2022-12-19T21:16:13.698Z,89.72
2022-12-19T21:18:44.955Z,89.63
2022-12-19T21:21:17.828Z,89.49
2022-12-19T21:23:46.886Z,89.52
2022-12-19T21:26:17.523Z,89.46
2022-12-19T21:28:46.814Z,89.50
2022-12-19T21:31:19.533Z,89.40
2022-12-19T21:33:49.543Z,89.49
2022-12-19T21:36:22.448Z,89.41
2022-12-19T21:38:54.521Z,89.59
2022-12-19T21:41:25.452Z,89.51
2022-12-19T21:43:56.248Z,89.43
2022-12-19T21:46:28.788Z,89.63
2022-12-19T21:49:01.344Z,89.35
2022-12-19T21:51:33.054Z,89.64
2022-12-19T21:54:06.126Z,89.72
2022-12-19T21:56:39.088Z,89.61
2022-12-19T21:59:12.605Z,89.52
2022-12-19T22:01:42.445Z,89.71
2022-12-19T22:04:17.364Z,89.75
2022-12-19T22:06:50.600Z,89.58
2022-12-19T22:09:23.916Z,89.57
2022-12-19T22:14:54.639Z,89.63
2022-12-19T22:17:26.189Z,89.61
2022-12-19T22:19:55.545Z,89.72
2022-12-19T22:22:25.925Z,89.64
2022-12-19T22:24:54.652Z,89.61
2022-12-19T22:27:25.153Z,89.62
2022-12-19T22:29:53.879Z,89.69
2022-12-19T22:32:22.573Z,89.64
2022-12-19T22:34:51.279Z,89.73
2022-12-19T22:37:20.066Z,89.46
2022-12-19T22:39:48.823Z,89.63
2022-12-19T22:42:17.552Z,89.30
2022-12-19T22:44:47.596Z,89.23
2022-12-19T22:47:16.318Z,89.17
2022-12-19T22:49:44.955Z,89.03
2022-12-19T22:52:13.729Z,88.82
2022-12-19T22:54:42.653Z,88.49
2022-12-19T22:57:12.028Z,88.26
2022-12-19T22:59:41.237Z,88.10
2022-12-19T23:02:11.583Z,87.85
2022-12-19T23:04:40.658Z,87.74
2022-12-19T23:07:09.419Z,87.69
2022-12-19T23:09:38.227Z,87.54
2022-12-19T23:12:07.645Z,87.44
2022-12-19T23:14:36.448Z,87.19
2022-12-19T23:17:05.189Z,86.99
2022-12-19T23:19:35.361Z,86.72
2022-12-19T23:22:04.137Z,86.40
2022-12-19T23:24:32.867Z,86.43
2022-12-19T23:27:01.808Z,85.92
2022-12-19T23:29:30.472Z,85.64
2022-12-19T23:31:59.247Z,85.45
2022-12-19T23:34:27.977Z,85.30
2022-12-19T23:37:10.681Z,85.26
2022-12-19T23:39:40.171Z,84.95
2022-12-19T23:42:08.982Z,84.93
2022-12-19T23:44:37.962Z,84.89
2022-12-19T23:47:06.868Z,85.25
2022-12-19T23:49:35.550Z,85.45
2022-12-19T23:52:06.302Z,85.26
2022-12-19T23:54:35.242Z,84.86
2022-12-19T23:57:03.930Z,84.66
2022-12-19T23:59:32.685Z,84.51
